Time;durP1;ratioP1;P1;durP2;ratioP2;P2;SDS_P1;SDS_P2;PMS_P1;PMS_P2;Temp;Humidity;BMP_temperature;BMP_pressure;BME280_temperature;BME280_humidity;BME280_pressure;Samples;Min_cycle;Max_cycle;Signal;HPM_P1;HPM_P2
2023/03/30 00:00:33;;;;;;;3.30;1.70;;;12.10;99.90;;;;;;5009468;28;20264;-49
2023/03/30 00:03:03;;;;;;;2.83;0.80;;;12.10;99.90;;;;;;5010119;28;20205;-49
2023/03/30 00:05:30;;;;;;;6.33;1.07;;;12.10;99.90;;;;;;5010855;28;20229;-49
2023/03/30 00:07:59;;;;;;;4.97;1.00;;;12.20;99.90;;;;;;5012057;28;20263;-49
2023/03/30 00:10:28;;;;;;;8.03;1.07;;;12.20;99.90;;;;;;5013743;28;20244;-48
2023/03/30 00:12:56;;;;;;;2.90;0.60;;;12.20;99.90;;;;;;5012302;28;20574;-48
2023/03/30 00:15:24;;;;;;;4.73;1.33;;;12.10;99.90;;;;;;5014032;28;20223;-49
2023/03/30 00:17:53;;;;;;;6.27;0.90;;;12.20;99.90;;;;;;5010393;28;20265;-49
2023/03/30 00:20:21;;;;;;;6.10;1.87;;;12.30;99.90;;;;;;5013578;28;20294;-49
2023/03/30 00:22:49;;;;;;;2.23;0.67;;;12.30;99.90;;;;;;5014190;28;20742;-48
2023/03/30 00:25:18;;;;;;;3.53;0.90;;;12.40;99.90;;;;;;5011832;28;20249;-49
2023/03/30 00:27:46;;;;;;;4.57;0.90;;;12.40;99.90;;;;;;5011608;28;20625;-49
2023/03/30 00:30:15;;;;;;;3.47;0.97;;;12.40;99.90;;;;;;5013205;28;20286;-49
2023/03/30 00:32:42;;;;;;;6.80;0.60;;;12.40;99.90;;;;;;5014033;28;20214;-49
2023/03/30 00:35:11;;;;;;;4.30;0.80;;;12.40;99.90;;;;;;5013292;28;20222;-49
2023/03/30 00:37:38;;;;;;;7.97;1.67;;;12.40;99.90;;;;;;5010393;28;20198;-49
2023/03/30 00:40:07;;;;;;;7.00;0.67;;;12.40;99.90;;;;;;5012139;28;20316;-49
2023/03/30 00:42:37;;;;;;;6.23;0.97;;;12.40;99.90;;;;;;5013621;28;20669;-48
2023/03/30 00:45:21;;;;;;;3.87;0.80;;;12.50;99.90;;;;;;5007091;28;20280;-49
2023/03/30 00:47:53;;;;;;;4.43;1.50;;;12.50;99.90;;;;;;5005422;28;20264;-49
2023/03/30 00:50:23;;;;;;;6.57;1.03;;;12.50;99.90;;;;;;5010305;28;20242;-48
2023/03/30 00:52:52;;;;;;;9.40;1.27;;;12.50;99.90;;;;;;5007807;28;20213;-49
2023/03/30 00:55:21;;;;;;;8.13;1.40;;;12.50;99.90;;;;;;5006640;28;20283;-49
2023/03/30 00:57:52;;;;;;;10.27;1.07;;;12.50;99.90;;;;;;5011087;28;20261;-49
2023/03/30 01:00:20;;;;;;;4.40;0.80;;;12.50;99.90;;;;;;5013725;28;20289;-49
2023/03/30 01:02:54;;;;;;;9.90;0.90;;;12.50;99.90;;;;;;5010698;28;20209;-49
2023/03/30 01:05:24;;;;;;;5.40;0.73;;;12.50;99.90;;;;;;5010085;28;20237;-49
2023/03/30 01:07:51;;;;;;;6.53;2.57;;;12.50;99.90;;;;;;5012150;28;20212;-48
2023/03/30 01:10:18;;;;;;;9.20;1.77;;;12.60;99.90;;;;;;5013111;28;20213;-50
2023/03/30 01:12:46;;;;;;;8.27;1.07;;;12.60;99.90;;;;;;5012544;28;20324;-49
2023/03/30 01:15:15;;;;;;;9.30;1.13;;;12.60;99.90;;;;;;5010707;28;20342;-49
2023/03/30 01:18:03;;;;;;;4.40;0.90;;;12.60;99.90;;;;;;5011316;28;20202;-49
2023/03/30 01:20:57;;;;;;;3.13;1.03;;;12.60;99.90;;;;;;5004174;28;20203;-48
2023/03/30 01:24:02;;;;;;;7.93;1.03;;;12.60;99.90;;;;;;5011560;28;20215;-48
2023/03/30 01:26:47;;;;;;;2.77;0.77;;;12.60;99.90;;;;;;5009143;28;20201;-48
2023/03/30 01:29:24;;;;;;;3.30;0.77;;;12.60;99.90;;;;;;5007317;28;20209;-49
2023/03/30 01:32:35;;;;;;;2.50;1.07;;;12.40;99.90;;;;;;5012796;28;20279;-48
2023/03/30 01:35:48;;;;;;;2.70;0.57;;;12.60;99.90;;;;;;4963264;28;20316;-49
2023/03/30 01:38:44;;;;;;;3.70;0.77;;;12.60;99.90;;;;;;4970727;28;20273;-49
2023/03/30 01:41:18;;;;;;;3.40;0.70;;;12.50;99.90;;;;;;4996817;28;20269;-49
2023/03/30 01:43:50;;;;;;;5.10;0.90;;;12.50;99.90;;;;;;5010556;28;20213;-49
2023/03/30 01:46:24;;;;;;;2.77;1.00;;;12.50;99.90;;;;;;5007480;28;20201;-48
2023/03/30 01:48:59;;;;;;;7.90;0.90;;;12.50;99.90;;;;;;5011963;28;20213;-48
2023/03/30 01:51:31;;;;;;;4.43;0.50;;;12.40;99.90;;;;;;5012416;28;20263;-48
2023/03/30 01:54:05;;;;;;;3.67;0.63;;;12.30;99.90;;;;;;5009477;28;20687;-47
2023/03/30 01:56:36;;;;;;;2.00;0.97;;;12.40;99.90;;;;;;5012304;28;20253;-47
2023/03/30 01:59:08;;;;;;;2.10;1.10;;;12.40;99.90;;;;;;5011746;28;20213;-48
2023/03/30 02:01:38;;;;;;;3.77;0.53;;;12.30;99.90;;;;;;5009354;28;20244;-48
2023/03/30 02:04:08;;;;;;;4.70;0.70;;;12.30;99.90;;;;;;5012253;28;20237;-48
2023/03/30 02:06:38;;;;;;;3.53;0.70;;;12.30;99.90;;;;;;5009870;28;20696;-47
2023/03/30 02:09:08;;;;;;;4.60;0.60;;;12.30;99.90;;;;;;5011637;28;20213;-47
2023/03/30 02:11:39;;;;;;;5.30;1.23;;;12.20;99.90;;;;;;5012242;28;20205;-49
2023/03/30 02:14:08;;;;;;;4.53;1.13;;;12.20;99.90;;;;;;5012077;28;20210;-49
2023/03/30 02:16:42;;;;;;;3.10;1.70;;;12.20;99.90;;;;;;5011835;28;20329;-48
2023/03/30 02:19:10;;;;;;;2.50;0.43;;;12.20;99.90;;;;;;5010329;28;20201;-49
2023/03/30 02:21:37;;;;;;;5.37;0.80;;;12.20;99.90;;;;;;5010421;28;20201;-49
2023/03/30 02:24:07;;;;;;;2.73;1.17;;;12.20;99.90;;;;;;5011658;28;20201;-48
2023/03/30 02:26:36;;;;;;;7.47;1.13;;;12.30;99.90;;;;;;5012225;28;20206;-49
2023/03/30 02:29:04;;;;;;;2.93;0.80;;;12.40;99.90;;;;;;5011084;28;20258;-48
2023/03/30 02:31:32;;;;;;;3.70;1.13;;;12.40;99.90;;;;;;5011341;28;20203;-48
2023/03/30 02:34:09;;;;;;;4.83;0.57;;;12.40;99.90;;;;;;5011804;28;20309;-49
2023/03/30 02:37:16;;;;;;;7.67;1.40;;;12.30;99.90;;;;;;5009792;28;20249;-48
2023/03/30 02:39:54;;;;;;;7.13;0.90;;;12.30;99.90;;;;;;5011689;28;20219;-49
2023/03/30 02:42:49;;;;;;;0.73;0.40;;;12.40;99.90;;;;;;5010508;28;20237;-48
2023/03/30 02:45:30;;;;;;;2.30;0.50;;;12.40;99.90;;;;;;5005768;28;20217;-48
2023/03/30 02:48:13;;;;;;;3.97;0.87;;;12.40;99.90;;;;;;5010979;28;20550;-48
2023/03/30 02:50:46;;;;;;;6.23;1.13;;;12.40;99.90;;;;;;5010733;28;20720;-49
2023/03/30 02:53:18;;;;;;;5.00;1.10;;;12.40;99.90;;;;;;5009300;28;20209;-48
2023/03/30 02:55:52;;;;;;;14.03;0.80;;;12.50;99.90;;;;;;5010030;28;20229;-48
2023/03/30 02:58:28;;;;;;;3.37;1.47;;;12.50;99.90;;;;;;5010605;28;20634;-48
2023/03/30 03:01:01;;;;;;;2.80;0.90;;;12.40;99.90;;;;;;5011699;28;20209;-48
2023/03/30 03:03:35;;;;;;;6.27;0.90;;;12.40;99.90;;;;;;5011559;28;20243;-49
2023/03/30 03:06:04;;;;;;;2.10;0.53;;;12.40;99.90;;;;;;5010903;28;20560;-48
2023/03/30 03:08:34;;;;;;;5.10;0.83;;;12.30;99.90;;;;;;5009841;28;20207;-48
2023/03/30 03:11:01;;;;;;;4.23;0.90;;;12.30;99.90;;;;;;5007434;28;20202;-48
2023/03/30 03:13:30;;;;;;;4.37;1.33;;;12.30;99.90;;;;;;5011343;28;20289;-48
2023/03/30 03:16:00;;;;;;;1.63;0.60;;;12.30;99.90;;;;;;5002486;28;20242;-49
2023/03/30 03:18:27;;;;;;;5.63;0.90;;;12.10;99.90;;;;;;5010501;28;20195;-48
2023/03/30 03:20:54;;;;;;;7.03;2.07;;;12.10;99.90;;;;;;5009086;28;20264;-47
2023/03/30 03:23:21;;;;;;;7.17;1.10;;;12.10;99.90;;;;;;5011157;28;20286;-48
2023/03/30 03:25:48;;;;;;;11.03;2.30;;;12.00;99.90;;;;;;5011224;28;20299;-48
2023/03/30 03:28:15;;;;;;;5.70;0.53;;;11.80;99.90;;;;;;5006335;28;20290;-48
2023/03/30 03:30:44;;;;;;;5.93;1.67;;;11.80;99.90;;;;;;5011087;28;20632;-49
2023/03/30 03:33:11;;;;;;;6.17;0.60;;;11.80;99.90;;;;;;5009043;28;20644;-48
2023/03/30 03:35:38;;;;;;;8.53;1.10;;;11.80;99.90;;;;;;5010744;28;20783;-49
2023/03/30 03:38:05;;;;;;;5.07;1.10;;;11.70;99.90;;;;;;5002304;28;20280;-47
2023/03/30 03:40:32;;;;;;;2.50;0.60;;;11.60;99.90;;;;;;5006858;28;20233;-48
2023/03/30 03:43:04;;;;;;;0.50;0.50;;;11.50;99.90;;;;;;5012555;28;20201;-47
2023/03/30 03:45:31;;;;;;;4.00;0.70;;;11.50;99.90;;;;;;5010587;28;20214;-47
2023/03/30 03:48:00;;;;;;;4.50;0.93;;;11.40;99.90;;;;;;5012871;28;20280;-49
2023/03/30 03:50:27;;;;;;;4.97;1.03;;;11.40;99.90;;;;;;5012321;28;20199;-49
2023/03/30 03:52:54;;;;;;;9.47;1.10;;;11.40;99.90;;;;;;5013525;28;20205;-48
2023/03/30 03:55:22;;;;;;;6.50;0.97;;;11.30;99.90;;;;;;5013031;28;20247;-48
2023/03/30 03:57:50;;;;;;;5.33;1.20;;;11.30;99.90;;;;;;5011783;28;20211;-48
2023/03/30 04:00:18;;;;;;;9.30;1.10;;;11.30;99.90;;;;;;5012895;28;20232;-49
2023/03/30 04:02:45;;;;;;;4.57;0.87;;;11.20;99.90;;;;;;5011107;28;20205;-48
2023/03/30 04:05:13;;;;;;;6.50;0.80;;;11.20;99.90;;;;;;5010881;28;20225;-48
2023/03/30 04:07:41;;;;;;;5.23;0.70;;;11.20;99.90;;;;;;5008549;28;20205;-47
2023/03/30 04:10:09;;;;;;;1.93;0.60;;;11.20;99.90;;;;;;5005982;28;20239;-47
2023/03/30 04:12:37;;;;;;;3.70;0.90;;;11.20;99.90;;;;;;5010183;28;20291;-48
2023/03/30 04:15:06;;;;;;;4.20;1.10;;;11.20;99.90;;;;;;5012651;28;20227;-48
2023/03/30 04:17:34;;;;;;;4.27;0.80;;;11.20;99.90;;;;;;5012064;28;20205;-48
2023/03/30 04:20:03;;;;;;;5.00;1.20;;;11.20;99.90;;;;;;5010679;28;20552;-48
2023/03/30 04:22:34;;;;;;;5.93;1.23;;;11.20;99.90;;;;;;5011220;28;20201;-50
2023/03/30 04:25:04;;;;;;;6.23;1.20;;;11.30;99.90;;;;;;5012277;28;20217;-47
2023/03/30 04:27:31;;;;;;;4.27;1.63;;;11.30;99.90;;;;;;5008251;28;20202;-47
2023/03/30 04:29:58;;;;;;;2.20;0.90;;;11.20;99.90;;;;;;5009792;28;20241;-48
2023/03/30 04:32:25;;;;;;;7.73;1.10;;;11.20;99.90;;;;;;5009899;28;20780;-47
2023/03/30 04:34:53;;;;;;;6.77;1.47;;;11.10;99.90;;;;;;5011913;28;20225;-48
2023/03/30 04:37:28;;;;;;;3.17;0.70;;;11.10;99.90;;;;;;5011994;28;20300;-48
2023/03/30 04:39:57;;;;;;;3.60;1.00;;;11.20;99.90;;;;;;5006319;28;20238;-48
2023/03/30 04:42:29;;;;;;;8.33;1.37;;;11.30;99.90;;;;;;5009007;28;20285;-48
2023/03/30 04:44:57;;;;;;;6.53;1.63;;;11.30;99.90;;;;;;5012447;28;20225;-48
2023/03/30 04:47:24;;;;;;;6.03;2.90;;;11.40;99.90;;;;;;5011779;28;20274;-48
2023/03/30 04:49:51;;;;;;;4.20;0.70;;;11.50;99.90;;;;;;5011990;28;20206;-47
2023/03/30 04:52:18;;;;;;;4.00;1.63;;;11.60;99.90;;;;;;5012019;28;20284;-47
2023/03/30 04:54:45;;;;;;;9.03;1.33;;;11.70;99.90;;;;;;5012094;28;20217;-48
2023/03/30 04:57:15;;;;;;;4.73;1.10;;;11.70;99.90;;;;;;5011595;28;20738;-47
2023/03/30 04:59:43;;;;;;;1.73;0.73;;;11.70;99.90;;;;;;5011251;28;20681;-48
2023/03/30 05:02:11;;;;;;;5.33;1.40;;;11.70;99.90;;;;;;5011991;28;20218;-48
2023/03/30 05:04:38;;;;;;;1.77;0.60;;;11.70;99.90;;;;;;5012077;28;20225;-48
2023/03/30 05:07:06;;;;;;;5.40;0.80;;;11.70;99.90;;;;;;5007853;28;20206;-48
2023/03/30 05:09:33;;;;;;;2.40;0.70;;;11.60;99.90;;;;;;5007352;28;20233;-47
2023/03/30 05:12:01;;;;;;;1.83;0.90;;;11.60;99.90;;;;;;5011734;28;20999;-49
2023/03/30 05:14:29;;;;;;;6.10;1.00;;;11.60;99.90;;;;;;5011759;28;20218;-48
2023/03/30 05:16:57;;;;;;;6.63;1.03;;;11.60;99.90;;;;;;5009759;28;20251;-49
2023/03/30 05:19:24;;;;;;;5.30;0.80;;;11.70;99.90;;;;;;5007533;28;20300;-48
2023/03/30 05:21:51;;;;;;;5.10;1.50;;;11.70;99.90;;;;;;5011649;28;20203;-48
2023/03/30 05:24:18;;;;;;;7.90;1.00;;;11.80;99.90;;;;;;5011402;28;20233;-48
2023/03/30 05:26:45;;;;;;;12.60;1.73;;;11.80;99.90;;;;;;5011769;28;20202;-47
2023/03/30 05:29:12;;;;;;;3.30;1.20;;;11.80;99.90;;;;;;5007185;28;20278;-48
2023/03/30 05:31:40;;;;;;;6.10;0.90;;;11.90;99.90;;;;;;5011671;28;20579;-47
2023/03/30 05:34:07;;;;;;;6.23;0.50;;;12.00;99.90;;;;;;5009541;28;20195;-47
2023/03/30 05:36:35;;;;;;;4.37;0.60;;;12.20;99.90;;;;;;5011206;28;20214;-48
2023/03/30 05:39:03;;;;;;;4.93;0.83;;;12.20;99.90;;;;;;5007373;28;20667;-49
2023/03/30 05:41:31;;;;;;;4.60;0.70;;;12.20;99.90;;;;;;5011157;28;20686;-48
2023/03/30 05:43:58;;;;;;;3.07;1.30;;;12.30;99.90;;;;;;5011255;28;20193;-47
2023/03/30 05:46:26;;;;;;;7.83;1.07;;;12.20;99.90;;;;;;5011244;28;20191;-48
2023/03/30 05:48:54;;;;;;;5.70;0.80;;;12.30;99.90;;;;;;5010604;28;20296;-48
2023/03/30 05:51:21;;;;;;;9.00;1.17;;;12.40;99.90;;;;;;5009300;28;20208;-48
2023/03/30 05:53:48;;;;;;;2.10;0.77;;;12.40;99.90;;;;;;5011092;28;20898;-49
2023/03/30 05:56:16;;;;;;;2.40;0.63;;;12.50;99.90;;;;;;5011119;28;20721;-48
2023/03/30 05:58:43;;;;;;;4.23;1.83;;;12.50;99.90;;;;;;5006399;28;20248;-48
2023/03/30 06:01:11;;;;;;;10.33;2.07;;;12.60;99.90;;;;;;5008282;28;20658;-48
2023/03/30 06:03:38;;;;;;;6.87;1.60;;;12.70;99.90;;;;;;5010424;28;20211;-48
2023/03/30 06:06:08;;;;;;;6.50;1.00;;;12.60;99.90;;;;;;5010511;28;20225;-49
2023/03/30 06:08:35;;;;;;;2.87;0.50;;;12.80;99.90;;;;;;5010365;28;20226;-48
2023/03/30 06:11:02;;;;;;;3.83;0.50;;;12.90;99.90;;;;;;5010992;28;20213;-48
2023/03/30 06:13:29;;;;;;;5.80;1.20;;;13.00;99.90;;;;;;5010654;28;20216;-48
2023/03/30 06:15:56;;;;;;;8.67;2.10;;;13.10;99.90;;;;;;5009101;28;20225;-48
2023/03/30 06:18:23;;;;;;;3.50;1.13;;;13.10;99.90;;;;;;5010292;28;20587;-48
2023/03/30 06:20:51;;;;;;;3.70;0.90;;;13.00;99.90;;;;;;5010720;28;20199;-48
2023/03/30 06:23:20;;;;;;;4.37;0.77;;;13.00;99.90;;;;;;5010615;28;20289;-48
2023/03/30 06:25:51;;;;;;;5.80;1.27;;;13.00;99.90;;;;;;5010476;28;20291;-49
2023/03/30 06:28:18;;;;;;;11.13;1.03;;;12.90;99.90;;;;;;5009937;28;20234;-48
2023/03/30 06:30:47;;;;;;;7.53;0.83;;;12.90;99.90;;;;;;5008694;28;20631;-48
2023/03/30 06:33:15;;;;;;;5.80;1.27;;;12.90;99.90;;;;;;5007120;28;20208;-49
2023/03/30 06:35:45;;;;;;;2.87;0.60;;;12.90;99.90;;;;;;5008702;28;20276;-49
2023/03/30 06:38:12;;;;;;;3.00;1.47;;;12.90;99.90;;;;;;5008893;28;20256;-49
2023/03/30 06:40:40;;;;;;;7.23;1.13;;;12.90;99.90;;;;;;5009962;28;20233;-48
2023/03/30 06:43:16;;;;;;;6.83;1.47;;;12.90;99.90;;;;;;5009919;28;20260;-48
2023/03/30 06:45:43;;;;;;;5.33;0.80;;;12.90;99.90;;;;;;5007709;28;20220;-48
2023/03/30 06:48:10;;;;;;;2.87;0.67;;;12.90;99.90;;;;;;5008666;28;20213;-48
2023/03/30 06:50:39;;;;;;;3.57;0.67;;;13.00;99.90;;;;;;5009701;28;20209;-47
2023/03/30 06:53:06;;;;;;;3.13;1.23;;;13.10;99.90;;;;;;5010217;28;20193;-48
2023/03/30 06:55:33;;;;;;;6.20;1.13;;;13.10;99.90;;;;;;5009862;28;20222;-49
2023/03/30 06:58:04;;;;;;;6.20;0.97;;;13.10;99.90;;;;;;5007367;28;20232;-49
2023/03/30 07:00:31;;;;;;;4.73;1.23;;;13.10;99.90;;;;;;5005556;28;20685;-48
2023/03/30 07:02:58;;;;;;;2.27;0.50;;;13.20;99.90;;;;;;5009037;28;20202;-48
2023/03/30 07:05:27;;;;;;;5.10;0.77;;;13.30;99.90;;;;;;5008784;28;20295;-48
2023/03/30 07:07:55;;;;;;;5.27;0.70;;;13.40;99.90;;;;;;5008916;28;20195;-50
2023/03/30 07:10:22;;;;;;;4.33;0.67;;;13.60;99.90;;;;;;5008635;28;20229;-49
2023/03/30 07:12:50;;;;;;;4.67;0.70;;;13.60;99.90;;;;;;5008924;28;20198;-49
2023/03/30 07:15:18;;;;;;;4.83;1.40;;;13.50;99.90;;;;;;5009940;28;20305;-49
2023/03/30 07:17:45;;;;;;;6.60;1.43;;;13.50;99.90;;;;;;5012300;28;20213;-49
2023/03/30 07:20:14;;;;;;;3.63;1.90;;;13.50;99.90;;;;;;5013320;28;20208;-49
2023/03/30 07:22:42;;;;;;;6.67;0.97;;;13.40;99.90;;;;;;5012529;28;20241;-49
2023/03/30 07:25:10;;;;;;;1.40;1.00;;;13.30;99.90;;;;;;5013509;28;20217;-49
2023/03/30 07:27:37;;;;;;;4.37;0.90;;;13.40;99.90;;;;;;5013337;28;20358;-49
2023/03/30 07:30:06;;;;;;;6.57;1.00;;;13.30;99.90;;;;;;5013740;28;20195;-49
2023/03/30 07:32:34;;;;;;;7.20;1.87;;;13.20;99.90;;;;;;5013493;28;20633;-49
2023/03/30 07:35:01;;;;;;;4.87;0.60;;;13.20;99.90;;;;;;5013443;28;20211;-48
2023/03/30 07:37:29;;;;;;;2.90;0.80;;;13.20;99.90;;;;;;5011375;28;20267;-49
2023/03/30 07:39:56;;;;;;;3.20;0.93;;;13.30;99.90;;;;;;5011444;28;20207;-48
2023/03/30 07:42:24;;;;;;;2.63;0.93;;;13.20;99.90;;;;;;5012994;28;20205;-49
2023/03/30 07:44:51;;;;;;;4.37;0.90;;;13.20;99.90;;;;;;5013005;28;20423;-49
2023/03/30 07:47:18;;;;;;;2.80;1.13;;;13.20;99.90;;;;;;5010023;28;20734;-49
2023/03/30 07:49:46;;;;;;;6.47;0.80;;;13.20;99.90;;;;;;5012384;28;20198;-49
2023/03/30 07:52:14;;;;;;;2.73;0.70;;;13.30;99.90;;;;;;5013317;28;20207;-49
2023/03/30 07:54:42;;;;;;;3.13;1.17;;;13.30;99.90;;;;;;5012267;28;20241;-49
2023/03/30 07:57:10;;;;;;;9.40;1.30;;;13.30;99.90;;;;;;5012556;28;20222;-49
2023/03/30 07:59:37;;;;;;;5.63;1.23;;;13.20;99.90;;;;;;5012262;28;20697;-50
2023/03/30 08:02:05;;;;;;;4.00;0.80;;;13.20;99.90;;;;;;5008880;28;20250;-50
2023/03/30 08:04:33;;;;;;;4.63;1.10;;;13.20;99.90;;;;;;5012338;28;20283;-49
2023/03/30 08:07:02;;;;;;;7.37;1.13;;;13.20;99.90;;;;;;5013313;28;20265;-49
2023/03/30 08:09:30;;;;;;;6.10;0.90;;;13.20;99.90;;;;;;5012330;28;20217;-50
2023/03/30 08:11:57;;;;;;;5.10;1.30;;;13.10;99.90;;;;;;5011622;28;20203;-49
2023/03/30 08:14:26;;;;;;;6.20;1.00;;;13.10;99.90;;;;;;5012175;28;20234;-49
2023/03/30 08:16:53;;;;;;;5.23;1.03;;;13.20;99.90;;;;;;5012496;28;20218;-49
2023/03/30 08:19:20;;;;;;;8.03;1.13;;;13.20;99.90;;;;;;5012355;28;20349;-49
2023/03/30 08:21:48;;;;;;;2.63;1.70;;;13.40;99.90;;;;;;5013018;28;20199;-49
2023/03/30 08:24:16;;;;;;;5.33;1.27;;;13.40;99.90;;;;;;5012635;28;20703;-49
2023/03/30 08:26:43;;;;;;;4.03;1.37;;;13.40;99.90;;;;;;5012205;28;20674;-48
2023/03/30 08:29:11;;;;;;;7.93;1.07;;;13.40;99.90;;;;;;5009667;28;20206;-49
2023/03/30 08:31:38;;;;;;;7.87;1.23;;;13.40;99.90;;;;;;5011000;28;20236;-49
2023/03/30 08:34:06;;;;;;;5.40;0.50;;;13.40;99.90;;;;;;5012447;28;20199;-49
2023/03/30 08:36:33;;;;;;;3.57;0.93;;;13.40;99.90;;;;;;5012216;28;20197;-49
2023/03/30 08:39:01;;;;;;;2.57;1.00;;;13.40;99.90;;;;;;5011703;28;20198;-49
2023/03/30 08:42:16;;;;;;;3.03;0.70;;;13.30;99.90;;;;;;5011999;28;20245;-49
2023/03/30 08:44:46;;;;;;;2.73;0.97;;;13.30;99.90;;;;;;5006863;28;20220;-49
2023/03/30 08:47:16;;;;;;;6.43;1.57;;;13.30;99.90;;;;;;5011876;28;20199;-49
2023/03/30 08:49:51;;;;;;;7.07;2.10;;;13.40;99.90;;;;;;5011234;28;20199;-50
2023/03/30 08:52:22;;;;;;;3.93;1.30;;;13.40;99.90;;;;;;5012195;28;20271;-49
2023/03/30 08:54:50;;;;;;;3.57;1.23;;;13.50;99.90;;;;;;5011968;28;20223;-49
2023/03/30 08:57:32;;;;;;;3.43;2.47;;;13.50;99.90;;;;;;5011958;28;20588;-49
2023/03/30 09:00:13;;;;;;;8.53;1.80;;;13.50;99.90;;;;;;5011356;28;20678;-49
2023/03/30 09:02:43;;;;;;;5.27;1.60;;;13.50;99.90;;;;;;5007488;28;20206;-49
2023/03/30 09:05:18;;;;;;;5.67;1.80;;;13.50;99.90;;;;;;5029773;23;20238;-46
2023/03/30 09:07:49;;;;;;;3.37;1.73;;;13.50;99.90;;;;;;4991586;28;20573;-47
2023/03/30 09:10:18;;;;;;;12.60;3.37;;;13.50;99.90;;;;;;4992261;28;20265;-47
2023/03/30 09:12:51;;;;;;;5.87;2.33;;;13.50;99.90;;;;;;4992385;28;20195;-47
2023/03/30 09:15:21;;;;;;;2.10;1.33;;;13.60;99.90;;;;;;4992517;28;20278;-48
2023/03/30 09:17:54;;;;;;;16.10;2.53;;;13.70;99.90;;;;;;4991408;28;20712;-46
2023/03/30 09:20:24;;;;;;;6.40;2.33;;;13.80;99.90;;;;;;4970332;28;20228;-47
2023/03/30 09:22:53;;;;;;;4.00;1.97;;;13.90;99.90;;;;;;4971695;28;20208;-46
2023/03/30 09:25:25;;;;;;;6.97;1.70;;;13.80;99.90;;;;;;4973475;28;20279;-48
2023/03/30 09:28:08;;;;;;;3.40;1.60;;;13.90;99.90;;;;;;4971239;28;20268;-48
2023/03/30 09:30:39;;;;;;;5.93;1.17;;;13.90;99.90;;;;;;4972147;28;20208;-46
2023/03/30 09:33:16;;;;;;;4.73;1.50;;;14.00;99.90;;;;;;4971056;28;20255;-48
2023/03/30 09:35:56;;;;;;;5.50;1.60;;;13.90;99.90;;;;;;4973107;28;20224;-46
2023/03/30 09:38:23;;;;;;;13.53;4.60;;;14.00;99.90;;;;;;4967384;28;20224;-47
2023/03/30 09:41:06;;;;;;;4.90;3.93;;;14.00;99.90;;;;;;4985335;28;20270;-47
2023/03/30 09:43:42;;;;;;;8.33;3.27;;;14.00;99.90;;;;;;4991714;28;20290;-47
2023/03/30 09:46:09;;;;;;;11.73;2.73;;;14.00;99.90;;;;;;4991444;28;20233;-46
2023/03/30 09:48:41;;;;;;;7.43;2.53;;;14.00;99.90;;;;;;4990700;28;20239;-48
2023/03/30 09:51:22;;;;;;;6.63;1.70;;;14.00;99.90;;;;;;4990332;28;20200;-47
2023/03/30 09:53:51;;;;;;;8.63;2.17;;;14.10;99.90;;;;;;4973475;28;20204;-47
2023/03/30 09:56:22;;;;;;;5.30;1.13;;;14.10;99.90;;;;;;4971952;28;20717;-46
2023/03/30 09:58:50;;;;;;;4.00;1.30;;;14.10;99.90;;;;;;4972227;28;20231;-47
2023/03/30 10:01:19;;;;;;;7.60;2.27;;;14.00;99.90;;;;;;4973742;28;20253;-48
2023/03/30 10:04:05;;;;;;;4.53;2.53;;;14.00;99.90;;;;;;4971649;28;20208;-46
2023/03/30 10:06:36;;;;;;;6.07;3.20;;;14.00;99.90;;;;;;4973467;28;20583;-45
2023/03/30 10:09:05;;;;;;;7.40;3.93;;;14.00;99.90;;;;;;4972151;28;20627;-46
2023/03/30 10:11:37;;;;;;;5.50;2.07;;;13.90;99.90;;;;;;4972472;28;20499;-46
2023/03/30 10:14:06;;;;;;;6.37;2.10;;;14.00;99.90;;;;;;4966461;28;20259;-46
2023/03/30 10:16:33;;;;;;;6.30;1.87;;;14.00;99.90;;;;;;4973431;28;20235;-46
2023/03/30 10:19:02;;;;;;;4.27;1.53;;;14.00;99.90;;;;;;4970506;28;20220;-46
2023/03/30 10:21:31;;;;;;;5.87;1.43;;;14.00;99.90;;;;;;4973576;28;20201;-47
2023/03/30 10:24:07;;;;;;;5.37;1.57;;;14.10;99.90;;;;;;4973689;28;20279;-45
2023/03/30 10:26:37;;;;;;;6.33;1.53;;;14.20;99.90;;;;;;4973948;28;20228;-45
2023/03/30 10:29:09;;;;;;;9.80;2.20;;;14.10;99.90;;;;;;4968696;28;20204;-48
2023/03/30 10:31:38;;;;;;;8.40;2.27;;;14.30;99.90;;;;;;4973481;28;20581;-45
2023/03/30 10:34:13;;;;;;;12.93;2.47;;;14.30;99.90;;;;;;4973395;28;20205;-46
2023/03/30 10:36:40;;;;;;;11.33;2.07;;;14.30;99.90;;;;;;4973297;28;20275;-46
2023/03/30 10:39:13;;;;;;;10.27;2.10;;;14.30;99.90;;;;;;4970664;28;20275;-46
2023/03/30 10:41:43;;;;;;;10.77;2.80;;;14.30;99.90;;;;;;4973217;28;20703;-47
2023/03/30 10:44:23;;;;;;;10.33;2.23;;;14.30;99.90;;;;;;4973523;28;20209;-48
2023/03/30 10:46:53;;;;;;;6.40;2.10;;;14.30;99.90;;;;;;4971418;28;20785;-48
2023/03/30 10:49:29;;;;;;;13.33;2.50;;;14.20;99.90;;;;;;4970161;28;20275;-47
2023/03/30 10:52:04;;;;;;;9.80;3.00;;;14.10;99.90;;;;;;4973104;28;20203;-48
2023/03/30 10:54:39;;;;;;;4.73;2.53;;;14.10;99.90;;;;;;4973381;28;20203;-44
2023/03/30 10:57:11;;;;;;;12.00;3.07;;;13.90;99.90;;;;;;4973060;28;20227;-50
2023/03/30 10:59:55;;;;;;;10.90;3.33;;;13.80;99.90;;;;;;4971129;28;20283;-47
2023/03/30 11:02:49;;;;;;;8.07;3.83;;;13.70;99.90;;;;;;4972126;28;20635;-46
2023/03/30 11:05:21;;;;;;;9.03;3.37;;;13.60;99.90;;;;;;4967533;28;20207;-47
2023/03/30 11:07:54;;;;;;;6.33;3.10;;;13.60;99.90;;;;;;4970616;28;20263;-46
2023/03/30 11:10:28;;;;;;;6.37;1.70;;;13.50;99.90;;;;;;4972918;28;20213;-45
2023/03/30 11:12:58;;;;;;;5.47;2.80;;;13.40;99.90;;;;;;4972977;28;20251;-46
2023/03/30 11:15:30;;;;;;;9.37;3.83;;;13.50;99.90;;;;;;4973100;28;20229;-47
2023/03/30 11:18:06;;;;;;;6.17;2.80;;;13.30;99.90;;;;;;4971406;28;20213;-46
2023/03/30 11:20:37;;;;;;;4.03;1.90;;;13.30;99.90;;;;;;4970239;28;20208;-45
2023/03/30 11:23:15;;;;;;;6.63;2.73;;;13.20;99.90;;;;;;4971634;28;20219;-46
2023/03/30 11:25:52;;;;;;;11.70;3.33;;;13.10;99.90;;;;;;4972085;28;20223;-45
2023/03/30 11:28:35;;;;;;;14.27;2.20;;;13.00;99.90;;;;;;4971525;28;20200;-46
2023/03/30 11:31:14;;;;;;;9.30;3.30;;;13.00;99.90;;;;;;4973902;28;20238;-46
2023/03/30 11:33:45;;;;;;;10.80;3.13;;;12.90;99.90;;;;;;4972133;28;20196;-45
2023/03/30 11:36:18;;;;;;;5.80;2.97;;;12.80;99.90;;;;;;4970394;28;20773;-46
2023/03/30 11:38:51;;;;;;;5.50;2.93;;;12.70;99.90;;;;;;4971050;28;20215;-45
2023/03/30 11:41:23;;;;;;;7.20;4.83;;;12.80;99.90;;;;;;4971210;28;20207;-46
2023/03/30 11:43:54;;;;;;;7.73;2.47;;;12.80;99.90;;;;;;4972538;28;20258;-45
2023/03/30 11:46:27;;;;;;;7.90;2.27;;;12.70;99.90;;;;;;4972809;28;20277;-45
2023/03/30 11:49:22;;;;;;;9.30;3.67;;;12.60;99.90;;;;;;4971714;28;20977;-46
2023/03/30 11:51:56;;;;;;;8.57;3.13;;;12.50;99.90;;;;;;4964418;28;20203;-46
2023/03/30 11:54:52;;;;;;;9.93;3.53;;;12.60;99.90;;;;;;4969818;28;20323;-46
2023/03/30 11:57:30;;;;;;;9.50;7.23;;;12.60;99.90;;;;;;4970893;28;20222;-46
2023/03/30 12:00:08;;;;;;;6.17;2.40;;;12.70;99.90;;;;;;4970881;28;20204;-45
2023/03/30 12:02:43;;;;;;;6.20;2.73;;;12.60;99.90;;;;;;4969827;28;20215;-47
2023/03/30 12:05:20;;;;;;;2.53;2.20;;;12.70;99.90;;;;;;4972598;28;20370;-46
2023/03/30 12:07:53;;;;;;;8.33;3.10;;;12.70;99.90;;;;;;4974260;28;20290;-46
2023/03/30 12:10:28;;;;;;;5.27;3.27;;;12.70;99.90;;;;;;4972182;28;20211;-46
2023/03/30 12:12:55;;;;;;;6.47;3.70;;;12.70;99.90;;;;;;4973282;28;20610;-45
2023/03/30 12:15:36;;;;;;;3.77;1.80;;;12.80;99.90;;;;;;4973666;28;20232;-47
2023/03/30 12:18:18;;;;;;;5.40;1.63;;;12.90;99.90;;;;;;4968959;28;20224;-45
2023/03/30 12:20:53;;;;;;;1.60;0.80;;;12.90;99.90;;;;;;4974816;28;20198;-46
2023/03/30 12:23:33;;;;;;;1.87;1.40;;;13.10;99.90;;;;;;4970000;28;20208;-45
2023/03/30 12:26:21;;;;;;;2.90;1.23;;;13.20;99.90;;;;;;4973827;28;20216;-47
2023/03/30 12:28:55;;;;;;;1.57;1.30;;;13.30;99.90;;;;;;4972224;28;20201;-47
2023/03/30 12:31:23;;;;;;;2.30;2.10;;;13.40;99.90;;;;;;4973608;28;20710;-46
2023/03/30 12:33:52;;;;;;;3.40;1.67;;;13.50;99.90;;;;;;4973414;28;20203;-46
2023/03/30 12:36:36;;;;;;;2.30;1.53;;;13.70;99.90;;;;;;4970638;28;20229;-46
2023/03/30 12:39:08;;;;;;;4.53;2.53;;;13.80;99.90;;;;;;4974548;28;20219;-46
2023/03/30 12:41:41;;;;;;;26.07;3.40;;;14.00;99.90;;;;;;4980208;28;20204;-47
2023/03/30 12:44:33;;;;;;;6.53;3.10;;;14.00;99.90;;;;;;4975504;28;20259;-46
2023/03/30 12:47:18;;;;;;;4.37;2.77;;;14.00;99.90;;;;;;4968729;28;20230;-46
2023/03/30 12:49:59;;;;;;;9.73;2.77;;;14.00;99.90;;;;;;4971160;28;20204;-46
2023/03/30 12:52:37;;;;;;;8.37;4.53;;;14.10;99.90;;;;;;4970351;28;20274;-46
2023/03/30 12:55:20;;;;;;;7.43;3.53;;;14.20;99.90;;;;;;4969760;28;20208;-48
2023/03/30 12:58:02;;;;;;;6.13;3.37;;;14.20;99.90;;;;;;4971731;28;20212;-46
2023/03/30 13:00:55;;;;;;;6.30;3.80;;;14.10;99.90;;;;;;4973480;28;20205;-45
2023/03/30 13:03:33;;;;;;;6.83;4.30;;;14.00;99.90;;;;;;4970508;28;20200;-46
2023/03/30 13:06:02;;;;;;;10.67;4.47;;;13.80;99.90;;;;;;4956348;28;20240;-46
2023/03/30 13:08:34;;;;;;;5.93;3.63;;;13.80;99.90;;;;;;4972402;28;20273;-49